Time;durP1;ratioP1;P1;durP2;ratioP2;P2;SDS_P1;SDS_P2;PMS_P1;PMS_P2;Temp;Humidity;BMP_temperature;BMP_pressure;BME280_temperature;BME280_humidity;BME280_pressure;Samples;Min_cycle;Max_cycle;Signal;HPM_P1;HPM_P2
2023/03/14 00:02:07;;;;;;;0.30;0.30;;;4.90;91.70;;;;;;5027117;28;20054;-74
2023/03/14 00:04:33;;;;;;;0.40;0.40;;;4.90;91.70;;;;;;5028223;28;20480;-75
2023/03/14 00:06:58;;;;;;;0.40;0.40;;;4.90;91.70;;;;;;5028295;28;20033;-74
2023/03/14 00:09:26;;;;;;;0.30;0.30;;;4.80;91.70;;;;;;5028300;28;20034;-74
2023/03/14 00:11:53;;;;;;;0.40;0.40;;;4.80;91.70;;;;;;5027078;28;20056;-73
2023/03/14 00:14:18;;;;;;;0.40;0.40;;;4.80;91.70;;;;;;5010614;28;20026;-74
2023/03/14 00:16:47;;;;;;;0.60;0.60;;;4.80;91.70;;;;;;5027407;28;20488;-74
2023/03/14 00:19:13;;;;;;;0.40;0.40;;;4.80;91.70;;;;;;5028411;28;20110;-73
2023/03/14 00:21:39;;;;;;;0.43;0.43;;;4.80;91.70;;;;;;5028199;28;20558;-74
2023/03/14 00:24:05;;;;;;;0.50;0.50;;;4.80;91.70;;;;;;5028431;28;20168;-73
2023/03/14 00:26:31;;;;;;;0.60;0.60;;;4.80;91.70;;;;;;5027068;28;20484;-73
2023/03/14 00:28:57;;;;;;;0.50;0.50;;;4.80;91.70;;;;;;5028024;28;20071;-74
2023/03/14 00:31:23;;;;;;;0.50;0.50;;;4.90;91.70;;;;;;5028116;28;20100;-74
2023/03/14 00:33:51;;;;;;;0.50;0.50;;;4.90;91.70;;;;;;5028656;28;20382;-73
2023/03/14 00:36:17;;;;;;;0.57;0.57;;;4.90;91.70;;;;;;5028240;28;20033;-73
2023/03/14 00:38:45;;;;;;;0.50;0.50;;;4.90;91.70;;;;;;5028027;28;20394;-73
2023/03/14 00:41:14;;;;;;;0.50;0.50;;;4.90;91.70;;;;;;5028049;28;20029;-74
2023/03/14 00:43:39;;;;;;;0.60;0.60;;;5.00;91.80;;;;;;5026587;28;20026;-73
2023/03/14 00:46:06;;;;;;;0.50;0.50;;;5.10;91.80;;;;;;5027918;28;20371;-74
2023/03/14 00:48:32;;;;;;;0.60;0.60;;;5.20;91.80;;;;;;5027901;28;20450;-73
2023/03/14 00:50:58;;;;;;;0.60;0.60;;;5.20;91.80;;;;;;5027998;28;20021;-74
2023/03/14 00:53:23;;;;;;;0.60;0.60;;;5.30;91.80;;;;;;5028115;28;20025;-74
2023/03/14 00:55:49;;;;;;;0.50;0.50;;;5.30;91.80;;;;;;5028084;28;20080;-74
2023/03/14 00:58:17;;;;;;;0.60;0.60;;;5.30;91.80;;;;;;5027980;28;20034;-74
2023/03/14 01:00:44;;;;;;;0.70;0.70;;;5.30;91.70;;;;;;5027828;28;20597;-73
2023/03/14 01:03:10;;;;;;;0.60;0.60;;;5.30;91.70;;;;;;5027869;28;20026;-73
2023/03/14 01:05:36;;;;;;;0.60;0.60;;;5.30;91.70;;;;;;5031066;28;20067;-74
2023/03/14 01:08:03;;;;;;;;;;;5.20;91.60;;;;;;5032222;28;20026;-75
2023/03/14 01:10:29;;;;;;;0.60;0.60;;;5.20;91.60;;;;;;5031698;28;19916;-73
2023/03/14 01:12:55;;;;;;;0.60;0.60;;;5.10;91.60;;;;;;5031966;28;20488;-73
2023/03/14 01:15:20;;;;;;;0.60;0.60;;;5.00;91.60;;;;;;5031692;28;20065;-74
2023/03/14 01:17:46;;;;;;;0.60;0.60;;;5.00;91.60;;;;;;5031534;28;20042;-73
2023/03/14 01:20:14;;;;;;;0.60;0.60;;;5.10;91.70;;;;;;5031604;28;20116;-73
2023/03/14 01:22:41;;;;;;;0.60;0.60;;;5.10;91.70;;;;;;5031898;28;20100;-74
2023/03/14 01:25:09;;;;;;;0.60;0.60;;;5.10;91.70;;;;;;5031567;28;20032;-73
2023/03/14 01:27:35;;;;;;;0.65;0.65;;;5.10;91.60;;;;;;5031495;28;20025;-74
2023/03/14 01:30:02;;;;;;;0.60;0.60;;;5.20;91.70;;;;;;5031493;28;20035;-74
2023/03/14 01:32:27;;;;;;;0.60;0.60;;;5.20;91.70;;;;;;5031384;28;20029;-73
2023/03/14 01:34:53;;;;;;;0.70;0.70;;;5.30;91.70;;;;;;5030118;28;20365;-74
2023/03/14 01:37:19;;;;;;;0.63;0.63;;;5.30;91.70;;;;;;5031362;28;20108;-73
2023/03/14 01:39:47;;;;;;;0.60;0.60;;;5.40;91.80;;;;;;5031300;28;20378;-73
2023/03/14 01:42:13;;;;;;;0.70;0.70;;;5.40;91.70;;;;;;5031168;28;20038;-74
2023/03/14 01:44:56;;;;;;;0.60;0.60;;;5.50;91.80;;;;;;5031133;28;20026;-73
2023/03/14 01:47:23;;;;;;;0.70;0.70;;;5.60;91.80;;;;;;5031120;28;20388;-74
2023/03/14 01:50:04;;;;;;;0.70;0.70;;;5.60;91.70;;;;;;5031182;28;20109;-73
2023/03/14 01:52:37;;;;;;;0.80;0.80;;;5.70;91.70;;;;;;5030903;28;20026;-75
2023/03/14 01:55:07;;;;;;;0.90;0.90;;;5.60;91.60;;;;;;5030768;28;20053;-75
2023/03/14 01:57:38;;;;;;;1.10;1.10;;;5.60;91.50;;;;;;5030552;28;20084;-75
2023/03/14 02:00:13;;;;;;;0.90;0.90;;;5.50;91.50;;;;;;5030779;28;20030;-75
2023/03/14 02:02:50;;;;;;;1.00;1.00;;;5.50;91.50;;;;;;5030693;28;20546;-74
2023/03/14 02:05:19;;;;;;;1.00;1.00;;;5.30;91.50;;;;;;5030630;28;20030;-74
2023/03/14 02:07:55;;;;;;;1.00;1.00;;;5.30;91.60;;;;;;5030591;28;20029;-74
2023/03/14 02:10:24;;;;;;;1.10;1.10;;;5.10;91.60;;;;;;5029571;28;20041;-74
2023/03/14 02:12:51;;;;;;;1.70;1.60;;;5.00;91.70;;;;;;5030711;28;20462;-74
2023/03/14 02:15:17;;;;;;;1.90;1.80;;;4.90;91.80;;;;;;5029702;28;20053;-74
2023/03/14 02:17:44;;;;;;;1.63;1.52;;;4.70;91.80;;;;;;5029992;28;20289;-75
2023/03/14 02:20:10;;;;;;;2.03;1.90;;;4.60;92.00;;;;;;5030547;28;20037;-74
2023/03/14 02:22:38;;;;;;;2.75;2.55;;;4.50;92.00;;;;;;5030600;28;20033;-74
2023/03/14 02:25:27;;;;;;;2.30;2.10;;;4.40;92.00;;;;;;5030543;28;20037;-74
2023/03/14 02:27:53;;;;;;;1.70;1.60;;;4.40;92.10;;;;;;5030278;28;20104;-74
2023/03/14 02:30:27;;;;;;;1.90;1.80;;;4.30;92.10;;;;;;5030295;28;20113;-74
2023/03/14 02:32:58;;;;;;;1.95;1.85;;;4.30;92.10;;;;;;5030147;28;20474;-74
2023/03/14 02:35:27;;;;;;;1.80;1.70;;;4.30;92.20;;;;;;5030388;28;20259;-74
2023/03/14 02:38:06;;;;;;;1.60;1.50;;;4.30;92.10;;;;;;5030325;28;20429;-74
2023/03/14 02:40:32;;;;;;;1.60;1.50;;;4.20;92.10;;;;;;5030007;28;20021;-74
2023/03/14 02:42:58;;;;;;;1.60;1.50;;;4.20;92.20;;;;;;5030071;28;20515;-74
2023/03/14 02:45:23;;;;;;;1.55;1.45;;;4.20;92.20;;;;;;5030099;28;20038;-74
2023/03/14 02:47:54;;;;;;;1.40;1.30;;;4.30;92.20;;;;;;5029880;28;20032;-74
2023/03/14 02:50:24;;;;;;;1.10;1.10;;;4.30;92.20;;;;;;5029947;28;20032;-74
2023/03/14 02:52:50;;;;;;;1.00;1.00;;;4.40;92.20;;;;;;5029689;28;20020;-75
2023/03/14 02:55:21;;;;;;;1.10;1.10;;;4.50;92.20;;;;;;5029923;28;20036;-74
2023/03/14 02:57:46;;;;;;;1.17;1.10;;;4.70;92.30;;;;;;5029597;28;20038;-74
2023/03/14 03:00:12;;;;;;;0.90;0.90;;;4.70;92.10;;;;;;5029858;28;20038;-74
2023/03/14 03:02:38;;;;;;;1.30;1.20;;;4.80;92.00;;;;;;5029487;28;20072;-74
2023/03/14 03:05:04;;;;;;;1.00;1.00;;;4.80;91.90;;;;;;5029282;28;20037;-75
2023/03/14 03:07:29;;;;;;;1.27;1.20;;;4.90;91.90;;;;;;5029259;28;20025;-74
2023/03/14 03:09:55;;;;;;;1.42;1.33;;;5.00;91.90;;;;;;5029451;28;20037;-74
2023/03/14 03:12:21;;;;;;;1.52;1.42;;;5.10;91.90;;;;;;5029315;28;20234;-75
2023/03/14 03:14:46;;;;;;;1.50;1.40;;;5.10;91.90;;;;;;5030026;28;20040;-74
2023/03/14 03:17:12;;;;;;;1.48;1.38;;;5.10;91.90;;;;;;5029108;28;20481;-74
2023/03/14 03:19:38;;;;;;;1.40;1.30;;;5.00;91.90;;;;;;5029292;28;20053;-74
2023/03/14 03:22:03;;;;;;;1.55;1.45;;;5.00;91.90;;;;;;5029177;28;20433;-74
2023/03/14 03:24:29;;;;;;;1.50;1.40;;;5.00;91.90;;;;;;5029240;28;20121;-74
2023/03/14 03:26:55;;;;;;;1.40;1.30;;;5.00;91.90;;;;;;5028792;28;20385;-74
2023/03/14 03:29:21;;;;;;;1.40;1.30;;;5.00;91.90;;;;;;5028927;28;20034;-74
2023/03/14 03:31:46;;;;;;;1.10;1.10;;;4.90;91.90;;;;;;5028983;28;20052;-74
2023/03/14 03:34:13;;;;;;;1.58;1.48;;;4.90;91.90;;;;;;5028924;28;20037;-74
2023/03/14 03:36:39;;;;;;;1.20;1.10;;;4.80;91.90;;;;;;5029101;28;20032;-74
2023/03/14 03:39:05;;;;;;;;;;;4.80;92.00;;;;;;5029360;28;20124;-74
2023/03/14 03:41:31;;;;;;;1.00;1.00;;;4.70;91.90;;;;;;5028922;28;19999;-75
2023/03/14 03:43:57;;;;;;;1.05;1.05;;;4.70;91.90;;;;;;5028970;28;20030;-74
2023/03/14 03:46:23;;;;;;;0.98;0.98;;;4.70;91.90;;;;;;5028862;28;20036;-75
2023/03/14 03:48:53;;;;;;;1.00;1.00;;;4.60;92.00;;;;;;5028663;28;20116;-74
2023/03/14 03:51:19;;;;;;;1.00;1.00;;;4.60;92.00;;;;;;5028605;28;20417;-74
2023/03/14 03:53:45;;;;;;;1.10;1.10;;;4.60;92.00;;;;;;5028841;28;20021;-74
2023/03/14 03:56:10;;;;;;;1.10;1.10;;;4.60;92.00;;;;;;5028693;28;20088;-74
2023/03/14 03:58:38;;;;;;;1.08;1.08;;;4.50;91.90;;;;;;5028703;28;20022;-74
2023/03/14 04:01:07;;;;;;;1.25;1.15;;;4.50;91.90;;;;;;5028540;28;20411;-74
2023/03/14 04:03:33;;;;;;;1.08;1.08;;;4.50;92.00;;;;;;5028515;28;20032;-74
2023/03/14 04:06:13;;;;;;;1.10;1.10;;;4.50;91.90;;;;;;5028523;28;20413;-74
2023/03/14 04:08:41;;;;;;;1.00;1.00;;;4.60;91.90;;;;;;5028494;28;20052;-74
2023/03/14 04:11:06;;;;;;;1.00;1.00;;;4.50;91.80;;;;;;5028538;28;20033;-74
2023/03/14 04:13:32;;;;;;;1.10;1.10;;;4.50;91.70;;;;;;5028693;28;20041;-74
2023/03/14 04:15:58;;;;;;;1.10;1.10;;;4.40;91.80;;;;;;5028423;28;20091;-75
2023/03/14 04:18:26;;;;;;;0.98;0.98;;;4.40;91.80;;;;;;5028310;28;20048;-75
2023/03/14 04:20:53;;;;;;;1.00;1.00;;;4.40;91.80;;;;;;5028218;28;20025;-74
2023/03/14 04:23:21;;;;;;;1.38;1.27;;;4.30;91.80;;;;;;5028112;28;20083;-74
2023/03/14 04:25:47;;;;;;;1.30;1.20;;;4.30;91.80;;;;;;5028252;28;20473;-74
2023/03/14 04:28:12;;;;;;;1.50;1.40;;;4.30;91.80;;;;;;5028110;28;20029;-74
2023/03/14 04:30:38;;;;;;;1.48;1.38;;;4.20;91.70;;;;;;5028073;28;20034;-74
2023/03/14 04:33:04;;;;;;;1.50;1.40;;;4.20;91.70;;;;;;5028104;28;20469;-74
2023/03/14 04:35:33;;;;;;;1.40;1.30;;;4.20;91.70;;;;;;5028138;28;20128;-74
2023/03/14 04:37:59;;;;;;;1.10;1.10;;;4.20;91.60;;;;;;5028177;28;20033;-74
2023/03/14 04:40:25;;;;;;;1.60;1.50;;;4.20;91.60;;;;;;5026289;28;20486;-74
2023/03/14 04:42:51;;;;;;;1.50;1.40;;;4.20;91.60;;;;;;5028167;28;20033;-74
2023/03/14 04:45:16;;;;;;;1.50;1.40;;;4.10;91.60;;;;;;5027856;28;20048;-74
2023/03/14 04:47:43;;;;;;;1.70;1.60;;;4.10;91.50;;;;;;5027754;28;20389;-74
2023/03/14 04:50:09;;;;;;;1.50;1.40;;;4.10;91.50;;;;;;5027979;28;20026;-75
2023/03/14 04:52:35;;;;;;;1.40;1.30;;;4.10;91.50;;;;;;5026793;28;20481;-74
2023/03/14 04:55:01;;;;;;;1.30;1.20;;;4.10;91.50;;;;;;5028001;28;20144;-74
2023/03/14 04:57:27;;;;;;;1.30;1.20;;;4.10;91.50;;;;;;5028159;28;20034;-74
2023/03/14 04:59:53;;;;;;;1.13;1.10;;;4.10;91.50;;;;;;5028001;28;20105;-74
2023/03/14 05:02:19;;;;;;;1.30;1.20;;;4.10;91.60;;;;;;5027590;28;20139;-74
2023/03/14 05:04:44;;;;;;;1.48;1.38;;;4.10;91.50;;;;;;5027928;28;20042;-74
2023/03/14 05:07:10;;;;;;;1.40;1.30;;;4.20;91.50;;;;;;5026390;28;20107;-74
2023/03/14 05:09:36;;;;;;;1.42;1.33;;;4.20;91.50;;;;;;5027862;28;20500;-74
2023/03/14 05:12:01;;;;;;;1.42;1.33;;;4.10;91.40;;;;;;5027832;28;20033;-74
2023/03/14 05:14:27;;;;;;;1.50;1.40;;;4.00;91.40;;;;;;5027868;28;20547;-74
2023/03/14 05:16:53;;;;;;;1.70;1.60;;;4.00;91.30;;;;;;5027664;28;20029;-74
2023/03/14 05:19:18;;;;;;;1.70;1.60;;;3.90;91.30;;;;;;5027584;28;20041;-74
2023/03/14 05:21:44;;;;;;;2.03;1.92;;;3.80;91.30;;;;;;5027568;28;20457;-74
2023/03/14 05:24:10;;;;;;;2.30;2.10;;;3.70;91.30;;;;;;5027609;28;20018;-74
2023/03/14 05:26:36;;;;;;;2.55;2.35;;;3.60;91.30;;;;;;5027469;28;20033;-74
2023/03/14 05:29:01;;;;;;;2.50;2.30;;;3.50;91.30;;;;;;5027772;28;20096;-74
2023/03/14 05:31:27;;;;;;;2.60;2.40;;;3.40;91.20;;;;;;5027698;28;20400;-74
2023/03/14 05:33:53;;;;;;;2.70;2.50;;;3.40;91.30;;;;;;5027510;28;20355;-74
2023/03/14 05:36:18;;;;;;;2.90;2.70;;;3.30;91.30;;;;;;5027486;28;20065;-75
2023/03/14 05:38:44;;;;;;;2.80;2.60;;;3.30;91.30;;;;;;5027433;28;20104;-75
2023/03/14 05:41:10;;;;;;;2.90;2.70;;;3.20;91.30;;;;;;5027326;28;20025;-75
2023/03/14 05:43:35;;;;;;;3.20;3.00;;;3.20;91.30;;;;;;5027324;28;20064;-75
2023/03/14 05:46:01;;;;;;;3.00;2.80;;;3.20;91.30;;;;;;5027452;28;20041;-74
2023/03/14 05:48:27;;;;;;;3.35;3.05;;;3.10;91.30;;;;;;5027342;28;20033;-73
2023/03/14 05:50:56;;;;;;;3.10;2.90;;;3.10;91.30;;;;;;5029356;28;20041;-74
2023/03/14 05:53:22;;;;;;;4.07;3.78;;;3.00;91.30;;;;;;5031028;28;20032;-74
2023/03/14 05:55:50;;;;;;;3.95;3.65;;;3.00;91.30;;;;;;5031229;28;20030;-74
2023/03/14 05:58:16;;;;;;;4.15;3.85;;;3.00;91.30;;;;;;5030724;28;20039;-75
2023/03/14 06:00:41;;;;;;;3.97;3.67;;;3.00;91.30;;;;;;5030545;28;20267;-74
2023/03/14 06:03:07;;;;;;;4.05;3.75;;;2.90;91.20;;;;;;5030991;28;20034;-74
2023/03/14 06:05:33;;;;;;;4.05;3.75;;;2.90;91.30;;;;;;5030707;28;20390;-74
2023/03/14 06:07:58;;;;;;;4.60;4.30;;;2.90;91.20;;;;;;5030764;28;20037;-74
2023/03/14 06:10:24;;;;;;;4.40;4.10;;;2.80;91.20;;;;;;5030799;28;20025;-74
2023/03/14 06:12:50;;;;;;;4.53;4.22;;;2.80;91.20;;;;;;5030594;28;20482;-75
2023/03/14 06:15:15;;;;;;;4.32;4.03;;;2.70;91.20;;;;;;5029316;28;20292;-75
2023/03/14 06:17:41;;;;;;;4.57;4.28;;;2.70;91.20;;;;;;5029349;28;20060;-71
2023/03/14 06:20:08;;;;;;;4.95;4.65;;;2.70;91.30;;;;;;5030261;28;20028;-74
2023/03/14 06:22:33;;;;;;;4.50;4.20;;;2.60;91.20;;;;;;5030438;28;20386;-74
2023/03/14 06:24:59;;;;;;;5.18;4.88;;;2.60;91.20;;;;;;5030271;28;20041;-74
2023/03/14 06:27:25;;;;;;;5.32;5.03;;;2.60;91.30;;;;;;5030420;28;20021;-73
2023/03/14 06:29:50;;;;;;;5.15;4.85;;;2.60;91.30;;;;;;5030399;28;20033;-74
2023/03/14 06:32:17;;;;;;;5.35;5.05;;;2.60;91.30;;;;;;5030252;28;20026;-74
2023/03/14 06:34:43;;;;;;;5.40;5.10;;;2.60;91.20;;;;;;5030021;28;20025;-74
2023/03/14 06:37:09;;;;;;;5.32;5.03;;;2.50;91.20;;;;;;5030095;28;20100;-74
2023/03/14 06:39:35;;;;;;;5.45;5.15;;;2.50;91.20;;;;;;5030247;28;20037;-74
2023/03/14 06:42:00;;;;;;;4.93;4.63;;;2.50;91.40;;;;;;5030001;28;20048;-74
2023/03/14 06:44:26;;;;;;;4.95;4.65;;;2.40;91.20;;;;;;5029992;28;20450;-74
2023/03/14 06:46:52;;;;;;;5.47;5.18;;;2.40;91.20;;;;;;5029889;28;20481;-74
2023/03/14 06:49:17;;;;;;;4.50;4.20;;;2.40;91.20;;;;;;5029778;28;20037;-75
2023/03/14 06:51:43;;;;;;;5.47;5.18;;;2.40;91.20;;;;;;5029751;28;20485;-75
2023/03/14 06:54:09;;;;;;;4.22;3.92;;;2.40;91.20;;;;;;5029661;28;20045;-74
2023/03/14 06:56:35;;;;;;;4.78;4.47;;;2.40;91.20;;;;;;5029663;28;20033;-75
2023/03/14 06:59:00;;;;;;;4.75;4.45;;;2.40;91.20;;;;;;5029614;28;20077;-74
2023/03/14 07:01:29;;;;;;;4.90;4.60;;;2.40;91.30;;;;;;5028867;28;20062;-74
2023/03/14 07:03:55;;;;;;;4.20;3.90;;;2.40;91.30;;;;;;5029146;28;20025;-74
2023/03/14 07:06:22;;;;;;;4.40;4.10;;;2.40;91.30;;;;;;5029504;28;20025;-74
2023/03/14 07:08:47;;;;;;;;;;;2.40;91.30;;;;;;5030250;28;20069;-74
2023/03/14 07:11:13;;;;;;;3.45;3.20;;;2.40;91.40;;;;;;5029242;28;19928;-74
2023/03/14 07:13:39;;;;;;;3.60;3.30;;;2.50;91.30;;;;;;5029210;28;20311;-74
2023/03/14 07:16:06;;;;;;;3.40;3.20;;;2.50;91.30;;;;;;5028943;28;20025;-75
2023/03/14 07:18:31;;;;;;;;;;;2.50;91.30;;;;;;5029484;28;20022;-74
2023/03/14 07:20:57;;;;;;;3.40;3.15;;;2.60;91.30;;;;;;5029231;28;19963;-75
2023/03/14 07:23:23;;;;;;;3.20;3.00;;;2.60;91.30;;;;;;5029421;28;20036;-74
2023/03/14 07:25:48;;;;;;;2.72;2.53;;;2.60;91.30;;;;;;5028993;28;20464;-74
2023/03/14 07:28:14;;;;;;;2.60;2.40;;;2.70;91.30;;;;;;5028754;28;20022;-74
2023/03/14 07:30:40;;;;;;;2.20;2.00;;;2.80;91.40;;;;;;5028950;28;20406;-74
2023/03/14 07:33:05;;;;;;;1.92;1.83;;;2.90;91.40;;;;;;5028528;28;20386;-75
2023/03/14 07:35:31;;;;;;;1.58;1.48;;;2.90;91.40;;;;;;5029070;28;20117;-74
2023/03/14 07:37:57;;;;;;;1.45;1.35;;;3.10;91.40;;;;;;5028834;28;20378;-75
2023/03/14 07:40:22;;;;;;;1.52;1.42;;;3.20;91.50;;;;;;5027959;28;20029;-75
2023/03/14 07:42:49;;;;;;;1.35;1.25;;;3.30;91.50;;;;;;5028403;28;20041;-74
2023/03/14 07:45:15;;;;;;;1.00;1.00;;;3.40;91.50;;;;;;5028798;28;20033;-75
2023/03/14 07:47:41;;;;;;;0.90;0.90;;;3.50;91.50;;;;;;5028469;28;20551;-74
2023/03/14 07:50:07;;;;;;;0.90;0.90;;;3.80;91.80;;;;;;5028451;28;20030;-75
2023/03/14 07:52:33;;;;;;;0.90;0.90;;;4.10;91.80;;;;;;5028376;28;20022;-75
2023/03/14 07:54:59;;;;;;;0.80;0.80;;;4.40;91.70;;;;;;5028270;28;20440;-75
2023/03/14 07:57:24;;;;;;;1.08;1.08;;;4.70;91.60;;;;;;5028368;28;20042;-75
2023/03/14 07:59:50;;;;;;;1.00;1.00;;;4.80;91.50;;;;;;5028050;28;20035;-74
2023/03/14 08:02:17;;;;;;;0.90;0.90;;;4.80;91.30;;;;;;5026683;28;20075;-75
2023/03/14 08:04:43;;;;;;;0.90;0.90;;;4.80;91.30;;;;;;5027804;28;20036;-75
2023/03/14 08:07:09;;;;;;;0.80;0.80;;;4.90;91.50;;;;;;5026657;28;20021;-75
2023/03/14 08:09:35;;;;;;;0.70;0.70;;;5.20;91.90;;;;;;5028118;28;20030;-75
2023/03/14 08:12:00;;;;;;;0.70;0.70;;;5.70;92.00;;;;;;5027949;28;20025;-74
2023/03/14 08:14:26;;;;;;;0.70;0.70;;;6.00;91.70;;;;;;5027935;28;20112;-75
2023/03/14 08:16:52;;;;;;;0.63;0.63;;;6.00;91.40;;;;;;5027648;28;20239;-75
2023/03/14 08:19:18;;;;;;;0.70;0.70;;;6.10;91.50;;;;;;5027793;28;20037;-75
2023/03/14 08:21:44;;;;;;;0.60;0.60;;;6.10;91.60;;;;;;5028029;28;20032;-74
2023/03/14 08:24:09;;;;;;;0.65;0.65;;;6.20;91.50;;;;;;5028077;28;20044;-75
2023/03/14 08:26:35;;;;;;;0.60;0.60;;;6.00;91.30;;;;;;5028223;28;20465;-75
2023/03/14 08:29:01;;;;;;;0.60;0.60;;;5.90;91.30;;;;;;5026338;28;20117;-74
2023/03/14 08:31:27;;;;;;;0.65;0.65;;;5.70;91.40;;;;;;5026657;28;20314;-74
2023/03/14 08:33:53;;;;;;;0.70;0.70;;;5.60;91.40;;;;;;5027622;28;20033;-75
2023/03/14 08:36:19;;;;;;;0.60;0.60;;;5.60;91.70;;;;;;5027906;28;20024;-75
2023/03/14 08:38:46;;;;;;;0.60;0.60;;;6.20;92.80;;;;;;5043213;28;20029;-75
2023/03/14 08:41:11;;;;;;;;;;;7.10;93.00;;;;;;5026651;28;20105;-73
2023/03/14 08:43:37;;;;;;;0.30;0.30;;;8.00;93.20;;;;;;5027110;28;20039;-73
2023/03/14 08:46:03;;;;;;;0.30;0.30;;;9.00;93.10;;;;;;5028038;28;20029;-73
2023/03/14 08:48:30;;;;;;;0.20;0.20;;;9.80;92.90;;;;;;5025973;28;20035;-72
2023/03/14 08:51:10;;;;;;;0.10;0.10;;;10.20;92.00;;;;;;5027455;28;20033;-72
2023/03/14 08:53:36;;;;;;;0.30;0.30;;;9.80;91.20;;;;;;5027689;28;20021;-72
2023/03/14 08:56:03;;;;;;;0.35;0.35;;;9.20;91.40;;;;;;5027383;28;20381;-76
2023/03/14 08:58:29;;;;;;;0.20;0.20;;;9.70;92.60;;;;;;5027345;28;20499;-75
2023/03/14 09:00:55;;;;;;;0.30;0.30;;;10.40;93.00;;;;;;5027239;28;20069;-75
2023/03/14 09:03:22;;;;;;;0.22;0.22;;;11.20;93.00;;;;;;5026974;28;20045;-73
2023/03/14 09:05:49;;;;;;;0.10;0.10;;;12.10;92.90;;;;;;5032507;28;20525;-73
2023/03/14 09:08:15;;;;;;;0.10;0.10;;;12.80;92.80;;;;;;5036137;28;20021;-74
2023/03/14 09:10:40;;;;;;;0.10;0.10;;;13.50;92.80;;;;;;5031036;28;20488;-74
2023/03/14 09:13:06;;;;;;;0.10;0.10;;;14.00;92.50;;;;;;5037600;28;20036;-75
2023/03/14 09:15:32;;;;;;;0.08;0.08;;;14.50;92.60;;;;;;5034965;28;20032;-75
2023/03/14 09:17:58;;;;;;;0.00;0.00;;;14.90;92.50;;;;;;5040195;28;20098;-74
2023/03/14 09:20:24;;;;;;;0.00;0.00;;;15.30;92.60;;;;;;5034580;28;20041;-75
2023/03/14 09:22:50;;;;;;;0.00;0.00;;;15.50;92.20;;;;;;5036047;28;20042;-74
2023/03/14 09:25:16;;;;;;;0.00;0.00;;;15.50;92.20;;;;;;5041671;28;20025;-74
2023/03/14 09:27:41;;;;;;;0.00;0.00;;;15.60;92.30;;;;;;5038810;28;20036;-74
2023/03/14 09:30:08;;;;;;;0.00;0.00;;;15.70;92.40;;;;;;5041287;28;20025;-75
2023/03/14 09:32:34;;;;;;;0.00;0.00;;;15.90;92.60;;;;;;5038472;28;20515;-74
2023/03/14 09:35:00;;;;;;;0.00;0.00;;;16.10;92.70;;;;;;5038943;28;20021;-74
2023/03/14 09:37:26;;;;;;;0.00;0.00;;;16.30;92.50;;;;;;5044584;28;20044;-74
2023/03/14 09:39:51;;;;;;;0.00;0.00;;;16.40;92.40;;;;;;5039665;28;20111;-74
2023/03/14 09:42:25;;;;;;;0.00;0.00;;;16.50;92.60;;;;;;5040046;28;20038;-75
2023/03/14 09:45:05;;;;;;;0.00;0.00;;;16.60;92.40;;;;;;5041429;28;20052;-74
2023/03/14 09:47:33;;;;;;;0.00;0.00;;;16.60;92.40;;;;;;5041126;28;20017;-74
2023/03/14 09:50:01;;;;;;;0.00;0.00;;;16.50;92.20;;;;;;5039435;28;20044;-74
2023/03/14 09:52:35;;;;;;;0.00;0.00;;;16.30;92.40;;;;;;5038827;28;20285;-74
2023/03/14 09:55:09;;;;;;;0.00;0.00;;;16.30;92.50;;;;;;5041388;28;20029;-74
2023/03/14 09:57:36;;;;;;;0.00;0.00;;;16.40;92.80;;;;;;5040860;28;20469;-74
2023/03/14 10:00:23;;;;;;;0.00;0.00;;;16.80;93.00;;;;;;5038100;28;20033;-74
2023/03/14 10:03:02;;;;;;;0.00;0.00;;;17.10;92.60;;;;;;5037441;28;20048;-73
2023/03/14 10:05:29;;;;;;;0.00;0.00;;;16.70;91.70;;;;;;5041295;28;20025;-74
2023/03/14 10:07:55;;;;;;;0.00;0.00;;;15.80;91.80;;;;;;5031777;28;20344;-74
2023/03/14 10:10:24;;;;;;;0.00;0.00;;;15.50;92.40;;;;;;5037949;28;20025;-73
2023/03/14 10:13:00;;;;;;;0.00;0.00;;;15.40;92.60;;;;;;5041693;28;20104;-74
2023/03/14 10:15:36;;;;;;;0.00;0.00;;;15.60;92.90;;;;;;5033363;28;20416;-74
2023/03/14 10:18:04;;;;;;;0.00;0.00;;;15.40;92.30;;;;;;5051147;28;20260;-74
2023/03/14 10:20:35;;;;;;;0.00;0.00;;;15.20;92.30;;;;;;5033517;28;20524;-74
2023/03/14 10:23:13;;;;;;;0.00;0.00;;;15.20;92.90;;;;;;5037263;28;20053;-74
2023/03/14 10:25:42;;;;;;;0.00;0.00;;;15.50;92.90;;;;;;5037805;28;20029;-75
2023/03/14 10:28:29;;;;;;;0.00;0.00;;;15.90;93.40;;;;;;5045509;28;20546;-74
2023/03/14 10:30:56;;;;;;;0.00;0.00;;;16.70;93.40;;;;;;5037489;28;20104;-73
2023/03/14 10:33:24;;;;;;;0.00;0.00;;;16.90;93.00;;;;;;5032385;28;20031;-73
2023/03/14 10:35:55;;;;;;;0.00;0.00;;;17.00;92.50;;;;;;5038146;28;20117;-73
2023/03/14 10:38:25;;;;;;;0.00;0.00;;;16.80;92.60;;;;;;5037624;28;20032;-73
2023/03/14 10:40:53;;;;;;;1.10;0.13;;;16.80;92.60;;;;;;5039332;28;20419;-73
2023/03/14 10:43:40;;;;;;;0.00;0.00;;;16.70;92.30;;;;;;5040273;28;20479;-73
2023/03/14 10:46:09;;;;;;;0.00;0.00;;;16.70;92.60;;;;;;5038997;28;20056;-73
2023/03/14 10:48:37;;;;;;;0.00;0.00;;;16.60;92.40;;;;;;5037336;28;20059;-73
2023/03/14 10:51:06;;;;;;;0.00;0.00;;;16.40;92.50;;;;;;5040248;28;20021;-73
2023/03/14 10:53:45;;;;;;;0.00;0.00;;;16.30;92.50;;;;;;5038573;28;20369;-75
2023/03/14 10:56:35;;;;;;;0.00;0.00;;;16.20;92.40;;;;;;5030809;28;20032;-74
2023/03/14 10:59:02;;;;;;;0.15;0.05;;;16.10;92.60;;;;;;5029017;28;20044;-75
2023/03/14 11:01:48;;;;;;;0.00;0.00;;;15.70;92.20;;;;;;5029628;28;20049;-73
2023/03/14 11:04:35;;;;;;;0.00;0.00;;;15.50;93.00;;;;;;5029426;28;20448;-76
2023/03/14 11:07:04;;;;;;;;;;;15.60;93.00;;;;;;5029923;28;20071;-74
2023/03/14 11:09:41;;;;;;;0.00;0.00;;;15.50;92.70;;;;;;5029533;28;19937;-72
2023/03/14 11:12:37;;;;;;;0.00;0.00;;;15.30;92.70;;;;;;5029599;28;20021;-74
2023/03/14 11:15:17;;;;;;;0.00;0.00;;;15.40;92.90;;;;;;5029623;28;20050;-73
2023/03/14 11:18:10;;;;;;;0.00;0.00;;;15.40;92.80;;;;;;5028978;28;20024;-72
2023/03/14 11:20:44;;;;;;;0.25;0.15;;;15.40;92.80;;;;;;5027131;28;20060;-73
2023/03/14 11:23:16;;;;;;;0.00;0.00;;;15.20;92.60;;;;;;5028980;28;20030;-75
2023/03/14 11:25:45;;;;;;;0.40;0.32;;;15.00;92.50;;;;;;5029145;28;20108;-72
2023/03/14 11:28:18;;;;;;;0.00;0.00;;;14.60;92.40;;;;;;5029634;28;20101;-76
2023/03/14 11:30:54;;;;;;;0.00;0.00;;;14.50;92.60;;;;;;5030156;28;20037;-73
2023/03/14 11:33:26;;;;;;;0.00;0.00;;;14.80;93.30;;;;;;5029883;28;20505;-75
2023/03/14 11:36:09;;;;;;;0.00;0.00;;;15.20;93.10;;;;;;5028895;28;20032;-74
2023/03/14 11:38:43;;;;;;;0.00;0.00;;;15.60;93.10;;;;;;5027888;28;20029;-76
2023/03/14 11:41:25;;;;;;;0.00;0.00;;;15.80;92.90;;;;;;5027981;28;20087;-72
2023/03/14 11:43:56;;;;;;;0.00;0.00;;;15.90;92.60;;;;;;5028236;28;20404;-75
2023/03/14 11:47:01;;;;;;;0.00;0.00;;;15.80;92.50;;;;;;5028056;28;20113;-76
2023/03/14 11:49:39;;;;;;;0.25;0.10;;;15.70;92.50;;;;;;5027726;28;20540;-75
2023/03/14 11:52:25;;;;;;;0.00;0.00;;;15.40;92.30;;;;;;5028214;28;20061;-73
2023/03/14 11:55:09;;;;;;;0.00;0.00;;;14.90;92.00;;;;;;5017286;28;20072;-73
2023/03/14 11:57:35;;;;;;;0.00;0.00;;;14.40;91.90;;;;;;5028031;28;20029;-74
2023/03/14 12:00:12;;;;;;;0.00;0.00;;;13.90;91.90;;;;;;5032669;28;20037;-74
2023/03/14 12:03:19;;;;;;;0.00;0.00;;;13.40;91.80;;;;;;5048216;28;20146;-73
2023/03/14 12:06:02;;;;;;;0.00;0.00;;;13.00;92.00;;;;;;5048074;28;20025;-74
2023/03/14 12:08:40;;;;;;;0.00;0.00;;;12.40;91.90;;;;;;5047784;28;20029;-73
2023/03/14 12:11:14;;;;;;;0.00;0.00;;;12.00;91.90;;;;;;5047914;28;20078;-74
2023/03/14 12:13:47;;;;;;;0.00;0.00;;;11.60;92.00;;;;;;5048287;28;20425;-74
2023/03/14 12:16:35;;;;;;;0.00;0.00;;;11.20;92.00;;;;;;5048678;28;20539;-74
2023/03/14 12:19:27;;;;;;;0.00;0.00;;;10.90;92.00;;;;;;5048441;28;20036;-72
2023/03/14 12:22:16;;;;;;;0.00;0.00;;;10.60;92.00;;;;;;5047029;28;20033;-74
2023/03/14 12:24:49;;;;;;;0.00;0.00;;;10.40;92.00;;;;;;5047886;28;20029;-73
2023/03/14 12:27:53;;;;;;;0.00;0.00;;;10.40;92.20;;;;;;5048530;28;20021;-73
2023/03/14 12:30:41;;;;;;;0.00;0.00;;;10.40;92.20;;;;;;5048398;28;20044;-76
2023/03/14 12:33:10;;;;;;;0.00;0.00;;;10.30;92.10;;;;;;5048457;28;20025;-73
2023/03/14 12:35:50;;;;;;;0.00;0.00;;;10.30;92.10;;;;;;5048176;28;20337;-76
2023/03/14 12:38:38;;;;;;;0.00;0.00;;;10.30;92.00;;;;;;5048862;28;20048;-77
2023/03/14 12:41:22;;;;;;;0.00;0.00;;;10.30;91.90;;;;;;5049926;28;20051;-72
2023/03/14 12:43:48;;;;;;;0.00;0.00;;;10.30;91.90;;;;;;5049882;28;20057;-78
2023/03/14 12:46:27;;;;;;;0.00;0.00;;;10.10;91.70;;;;;;5048911;28;20029;-73
2023/03/14 12:49:05;;;;;;;0.00;0.00;;;10.00;91.70;;;;;;5046791;28;20389;-76
2023/03/14 12:51:45;;;;;;;0.00;0.00;;;10.00;91.90;;;;;;5048562;28;20052;-74
2023/03/14 12:54:20;;;;;;;0.00;0.00;;;10.10;92.20;;;;;;5048372;28;20365;-74
2023/03/14 12:56:48;;;;;;;0.00;0.00;;;10.20;92.10;;;;;;5048372;28;20092;-75
2023/03/14 12:59:31;;;;;;;0.00;0.00;;;10.40;92.10;;;;;;5048119;28;20046;-75
2023/03/14 13:02:03;;;;;;;0.00;0.00;;;10.40;91.80;;;;;;5050028;28;20049;-74
2023/03/14 13:05:10;;;;;;;0.00;0.00;;;10.40;91.80;;;;;;5052266;28;20457;-74
2023/03/14 13:07:55;;;;;;;0.00;0.00;;;10.30;91.70;;;;;;5051984;28;20066;-72